Time;durP1;ratioP1;P1;durP2;ratioP2;P2;SDS_P1;SDS_P2;PMS_P1;PMS_P2;Temp;Humidity;BMP_temperature;BMP_pressure;BME280_temperature;BME280_humidity;BME280_pressure;Samples;Min_cycle;Max_cycle;Signal;HPM_P1;HPM_P2
2021/12/24 00:01:58;;;;;;;50.65;25.80;;;8.90;99.90;;;;;;5025529;28;20422;-75
2021/12/24 00:04:25;;;;;;;49.95;25.10;;;8.90;99.90;;;;;;5033904;28;20425;-75
2021/12/24 00:06:51;;;;;;;47.00;23.73;;;8.90;99.90;;;;;;5022265;28;20401;-74
2021/12/24 00:09:23;;;;;;;41.47;23.38;;;8.90;99.90;;;;;;5014538;28;20407;-74
2021/12/24 00:11:51;;;;;;;49.97;25.08;;;8.80;99.90;;;;;;5028749;28;20416;-75
2021/12/24 00:14:17;;;;;;;42.72;24.15;;;8.90;99.90;;;;;;5013540;28;20915;-75
2021/12/24 00:16:49;;;;;;;44.75;23.38;;;8.90;99.90;;;;;;5017205;28;20744;-74
2021/12/24 00:35:34;;;;;;;40.63;23.83;;;9.00;99.90;;;;;;5030708;28;22875;-73
2021/12/24 00:38:06;;;;;;;40.30;23.50;;;8.90;99.90;;;;;;5031974;28;20951;-74
2021/12/24 00:40:35;;;;;;;44.13;23.70;;;8.90;99.90;;;;;;5031561;28;20436;-74
2021/12/24 00:43:01;;;;;;;42.77;23.57;;;8.90;99.90;;;;;;5014960;28;20486;-74
2021/12/24 00:45:39;;;;;;;45.17;24.17;;;8.90;99.90;;;;;;5015799;28;20392;-73
2021/12/24 00:48:07;;;;;;;36.60;20.77;;;8.90;99.90;;;;;;5022701;28;20445;-74
2021/12/24 00:56:04;;;;;;;38.55;21.83;;;8.90;99.90;;;;;;5035447;28;20772;-73
2021/12/24 00:58:31;;;;;;;38.90;21.30;;;8.90;99.90;;;;;;5041227;28;20412;-74
2021/12/24 01:00:57;;;;;;;38.63;21.63;;;8.90;99.90;;;;;;5052333;28;20716;-74
2021/12/24 01:03:23;;;;;;;37.40;21.90;;;8.90;99.90;;;;;;5050739;28;20854;-74
2021/12/24 01:05:48;;;;;;;37.55;20.90;;;8.90;99.90;;;;;;5030199;28;20406;-74
2021/12/24 01:08:14;;;;;;;36.33;21.58;;;8.90;99.90;;;;;;5032008;28;20391;-73
2021/12/24 01:10:53;;;;;;;42.28;23.85;;;9.00;99.90;;;;;;5031595;28;20402;-73
2021/12/24 01:13:18;;;;;;;40.28;23.42;;;8.90;99.90;;;;;;5031428;28;20415;-73
2021/12/24 01:16:02;;;;;;;42.53;23.10;;;8.90;99.90;;;;;;5027359;28;20914;-73
2021/12/24 01:18:40;;;;;;;39.90;22.35;;;8.90;99.90;;;;;;5029482;28;20457;-73
2021/12/24 01:26:12;;;;;;;44.57;24.50;;;9.00;99.90;;;;;;5016951;28;20404;-74
2021/12/24 01:44:35;;;;;;;48.90;26.13;;;9.00;99.90;;;;;;5032017;28;20378;-74
2021/12/24 01:47:08;;;;;;;44.88;26.02;;;9.10;99.90;;;;;;5031222;28;20383;-75
2021/12/24 01:49:34;;;;;;;45.75;24.90;;;9.10;99.90;;;;;;5030842;28;20441;-74
2021/12/24 01:52:02;;;;;;;45.13;26.33;;;9.20;99.90;;;;;;5023281;28;20451;-74
2021/12/24 01:54:28;;;;;;;45.13;25.90;;;9.10;99.90;;;;;;5031202;28;20473;-74
2021/12/24 01:56:53;;;;;;;40.80;24.50;;;9.10;99.90;;;;;;5031188;28;20382;-74
2021/12/24 01:59:19;;;;;;;45.08;25.75;;;9.10;99.90;;;;;;5046216;28;20381;-74
2021/12/24 02:01:45;;;;;;;46.63;24.57;;;9.10;99.90;;;;;;5051043;28;21010;-74
2021/12/24 02:04:13;;;;;;;47.20;26.48;;;9.10;99.90;;;;;;5030661;28;20759;-74
2021/12/24 02:06:39;;;;;;;50.47;25.37;;;9.20;99.90;;;;;;5029462;28;20888;-74
2021/12/24 02:09:06;;;;;;;47.25;27.13;;;9.20;99.90;;;;;;5030778;28;20470;-74
2021/12/24 02:11:37;;;;;;;46.15;26.15;;;9.20;99.90;;;;;;5030366;28;20383;-74
2021/12/24 02:14:10;;;;;;;38.22;23.48;;;9.20;99.90;;;;;;5012819;28;20484;-72
2021/12/24 02:16:50;;;;;;;47.00;27.65;;;9.20;99.90;;;;;;5014203;28;20738;-73
2021/12/24 02:30:02;;;;;;;47.85;26.88;;;9.30;99.90;;;;;;5018541;28;20388;-74
2021/12/24 02:32:27;;;;;;;47.60;27.45;;;9.30;99.90;;;;;;5016330;28;20400;-74
2021/12/24 02:34:53;;;;;;;49.63;26.37;;;9.30;99.90;;;;;;5016175;28;20408;-73
2021/12/24 02:37:19;;;;;;;54.10;28.23;;;9.40;99.90;;;;;;5018548;28;20471;-74
2021/12/24 02:39:44;;;;;;;54.80;29.15;;;9.30;99.90;;;;;;5017667;28;20845;-74
2021/12/24 02:42:22;;;;;;;54.67;29.35;;;9.30;99.90;;;;;;5015552;28;20385;-74
2021/12/24 02:44:49;;;;;;;57.90;29.60;;;9.20;99.90;;;;;;5033230;28;20399;-75
2021/12/24 02:55:02;;;;;;;48.40;28.80;;;9.40;99.90;;;;;;5035754;28;20911;-74
2021/12/24 02:57:28;;;;;;;55.55;28.55;;;9.40;99.90;;;;;;5031726;28;20803;-74
2021/12/24 03:00:00;;;;;;;54.47;29.17;;;9.30;99.90;;;;;;5045109;28;20968;-74
2021/12/24 03:02:27;;;;;;;57.25;27.58;;;9.40;99.90;;;;;;5028401;28;20436;-74
2021/12/24 03:04:53;;;;;;;52.97;26.08;;;9.40;99.90;;;;;;5012191;28;20385;-74
2021/12/24 03:07:18;;;;;;;52.00;27.75;;;9.40;99.90;;;;;;5011995;28;20397;-74
2021/12/24 03:09:44;;;;;;;50.25;28.08;;;9.40;99.90;;;;;;5012846;28;20466;-74
2021/12/24 03:12:10;;;;;;;48.33;27.23;;;9.40;99.90;;;;;;5013533;28;20396;-74
2021/12/24 03:14:36;;;;;;;49.37;28.43;;;9.40;99.90;;;;;;5030624;28;20407;-73
2021/12/24 03:17:07;;;;;;;50.03;27.70;;;9.40;99.90;;;;;;5033201;28;20444;-74
2021/12/24 03:19:33;;;;;;;47.05;26.58;;;9.50;99.90;;;;;;5035145;28;20410;-74
2021/12/24 03:22:35;;;;;;;44.65;24.98;;;9.50;99.90;;;;;;5035228;28;20406;-73
2021/12/24 03:25:01;;;;;;;46.50;25.30;;;9.50;99.90;;;;;;5015898;28;21024;-74
2021/12/24 03:27:26;;;;;;;43.67;24.95;;;9.50;99.90;;;;;;5021075;28;20408;-74
2021/12/24 03:29:52;;;;;;;45.23;23.80;;;9.50;99.90;;;;;;5031426;28;20399;-74
2021/12/24 03:32:18;;;;;;;44.67;25.60;;;9.50;99.90;;;;;;5022320;28;20480;-74
2021/12/24 03:34:44;;;;;;;42.45;24.45;;;9.50;99.90;;;;;;5020343;28;20413;-73
2021/12/24 03:37:10;;;;;;;46.63;24.52;;;9.50;99.90;;;;;;5018252;28;20396;-74
2021/12/24 03:39:36;;;;;;;42.77;23.53;;;9.50;99.00;;;;;;5022202;28;20388;-74
2021/12/24 03:42:03;;;;;;;42.35;24.23;;;9.60;98.80;;;;;;5040799;28;20429;-74
2021/12/24 03:44:41;;;;;;;42.28;24.23;;;9.50;99.90;;;;;;5042631;28;20406;-74
2021/12/24 03:47:15;;;;;;;46.20;23.67;;;9.50;99.90;;;;;;5035831;28;20389;-74
2021/12/24 03:54:58;;;;;;;41.72;24.42;;;9.50;99.90;;;;;;5035291;28;20412;-72
2021/12/24 03:57:39;;;;;;;42.47;22.40;;;9.50;99.90;;;;;;5027001;28;20406;-70
2021/12/24 04:00:15;;;;;;;35.90;22.10;;;9.60;99.90;;;;;;5033807;28;20382;-71
2021/12/24 04:02:41;;;;;;;41.17;22.97;;;9.60;99.90;;;;;;5033575;28;20382;-71
2021/12/24 04:05:07;;;;;;;40.50;23.40;;;9.60;99.30;;;;;;5033762;28;20951;-71
2021/12/24 04:07:33;;;;;;;42.45;22.77;;;9.60;99.20;;;;;;5033130;28;20888;-71
2021/12/24 04:10:06;;;;;;;42.75;23.65;;;9.50;99.60;;;;;;5033197;28;20412;-71
2021/12/24 04:12:34;;;;;;;37.75;21.58;;;9.50;99.90;;;;;;5033559;28;20394;-71
2021/12/24 04:14:59;;;;;;;45.42;22.00;;;9.60;98.60;;;;;;5034679;28;20489;-71
2021/12/24 04:17:25;;;;;;;44.22;22.27;;;9.60;98.50;;;;;;5033401;28;20442;-70
2021/12/24 04:25:19;;;;;;;39.92;22.15;;;9.60;98.00;;;;;;5019486;28;20770;-71
2021/12/24 04:27:45;;;;;;;41.53;22.85;;;9.60;95.90;;;;;;5019986;28;20391;-71
2021/12/24 04:30:15;;;;;;;47.80;23.95;;;9.60;96.40;;;;;;5032933;28;20487;-70
2021/12/24 04:35:20;;;;;;;45.03;23.65;;;9.60;96.80;;;;;;5027218;28;20419;-73
2021/12/24 05:02:02;;;;;;;40.63;22.98;;;9.80;92.00;;;;;;5052266;28;20389;-72
2021/12/24 05:04:31;;;;;;;39.80;22.90;;;9.70;93.30;;;;;;5051962;28;20388;-72
2021/12/24 05:07:07;;;;;;;43.95;24.65;;;9.70;93.10;;;;;;5026813;28;20399;-72
2021/12/24 05:09:35;;;;;;;46.35;23.60;;;9.70;92.30;;;;;;5013369;28;20409;-72
2021/12/24 05:12:00;;;;;;;51.00;23.70;;;9.70;92.50;;;;;;5026427;28;20416;-71
2021/12/24 05:14:30;;;;;;;42.77;23.20;;;9.80;92.20;;;;;;5011976;28;20943;-72
2021/12/24 05:17:15;;;;;;;43.92;23.75;;;9.80;92.10;;;;;;5017090;28;20399;-71
2021/12/24 05:22:24;;;;;;;42.87;22.53;;;9.80;93.30;;;;;;5012104;28;20480;-72
2021/12/24 05:24:50;;;;;;;43.60;24.37;;;9.80;92.50;;;;;;5012199;28;20393;-71
2021/12/24 05:27:15;;;;;;;46.93;24.13;;;9.80;93.10;;;;;;5011890;28;20385;-71
2021/12/24 05:29:41;;;;;;;42.30;23.20;;;9.80;92.70;;;;;;5012654;28;20423;-73
2021/12/24 05:32:07;;;;;;;49.77;24.73;;;9.70;93.90;;;;;;5011604;28;20427;-73
2021/12/24 05:34:33;;;;;;;49.90;24.63;;;9.80;93.30;;;;;;5017304;28;20411;-73
2021/12/24 05:36:59;;;;;;;44.03;23.65;;;9.80;94.50;;;;;;5030319;28;20383;-72
2021/12/24 05:39:24;;;;;;;46.70;25.00;;;9.80;93.40;;;;;;5031471;28;20722;-73
2021/12/24 05:41:50;;;;;;;53.10;25.80;;;9.80;93.10;;;;;;5012863;28;20419;-73
2021/12/24 05:44:17;;;;;;;47.33;22.63;;;9.80;93.70;;;;;;5012010;28;20408;-72
2021/12/24 05:46:45;;;;;;;52.15;24.58;;;9.80;92.70;;;;;;5011933;28;20471;-72
2021/12/24 05:49:10;;;;;;;50.95;24.65;;;9.80;93.10;;;;;;5013107;28;20393;-73
2021/12/24 05:51:36;;;;;;;46.37;24.13;;;9.80;92.90;;;;;;5026183;28;20452;-74
2021/12/24 05:54:02;;;;;;;54.07;25.67;;;9.70;94.50;;;;;;5031697;28;20383;-75
2021/12/24 05:56:28;;;;;;;46.08;24.20;;;9.80;94.40;;;;;;5029536;28;20407;-75
2021/12/24 05:58:53;;;;;;;44.88;23.42;;;9.80;93.60;;;;;;5041046;28;20428;-74
2021/12/24 06:01:19;;;;;;;46.53;24.65;;;9.80;93.80;;;;;;5035951;28;20514;-75
2021/12/24 06:03:45;;;;;;;46.90;24.65;;;9.80;96.50;;;;;;5015660;28;20409;-73
2021/12/24 06:06:10;;;;;;;44.42;23.88;;;9.70;95.00;;;;;;5011260;28;20385;-73
2021/12/24 06:08:36;;;;;;;44.30;23.70;;;9.70;95.30;;;;;;5011047;28;20400;-74
2021/12/24 06:11:01;;;;;;;52.80;24.10;;;9.80;95.90;;;;;;5011549;28;20417;-74
2021/12/24 06:13:29;;;;;;;49.63;23.70;;;9.80;93.40;;;;;;5025143;28;20751;-74
2021/12/24 06:15:55;;;;;;;48.88;24.42;;;9.80;93.00;;;;;;5032858;28;20430;-73
2021/12/24 06:18:30;;;;;;;52.30;24.33;;;9.80;92.20;;;;;;5035391;28;20398;-74
2021/12/24 06:21:00;;;;;;;43.38;22.38;;;9.80;92.50;;;;;;5035643;28;20421;-73
2021/12/24 06:23:27;;;;;;;42.50;22.08;;;9.80;91.30;;;;;;5032861;28;20391;-74
2021/12/24 06:25:55;;;;;;;50.60;22.95;;;9.90;89.90;;;;;;5030649;28;20504;-74
2021/12/24 06:28:22;;;;;;;44.05;23.20;;;9.90;89.20;;;;;;5030827;28;20412;-74
2021/12/24 06:30:48;;;;;;;43.70;22.93;;;9.90;89.90;;;;;;5024389;28;20476;-73
2021/12/24 06:33:14;;;;;;;44.75;23.02;;;9.80;89.90;;;;;;5011065;28;20421;-75
2021/12/24 06:35:39;;;;;;;45.70;23.87;;;9.80;91.60;;;;;;5026536;28;20911;-74
2021/12/24 06:38:06;;;;;;;48.30;24.80;;;9.80;90.10;;;;;;5031105;28;20980;-74
2021/12/24 06:40:32;;;;;;;43.67;21.98;;;9.80;91.30;;;;;;5030972;28;20379;-74
2021/12/24 06:42:58;;;;;;;45.08;23.60;;;9.80;89.60;;;;;;5030410;28;20391;-76
2021/12/24 06:45:24;;;;;;;43.60;22.50;;;9.80;89.30;;;;;;5029994;28;20498;-75
2021/12/24 06:47:51;;;;;;;49.17;23.20;;;9.80;90.60;;;;;;5015398;28;20404;-74
2021/12/24 06:50:17;;;;;;;46.88;22.20;;;9.80;89.10;;;;;;5034192;28;20410;-73
2021/12/24 06:52:43;;;;;;;47.80;23.17;;;9.90;86.70;;;;;;5033851;28;20383;-73
2021/12/24 06:55:10;;;;;;;45.30;22.73;;;9.90;87.00;;;;;;5034542;28;20411;-73
2021/12/24 06:57:40;;;;;;;50.92;22.80;;;9.90;87.10;;;;;;5034949;28;20391;-73
2021/12/24 07:00:11;;;;;;;44.63;22.95;;;9.90;86.70;;;;;;5018121;28;20420;-73
2021/12/24 07:02:36;;;;;;;47.53;23.17;;;9.80;88.20;;;;;;5014310;28;20389;-73
2021/12/24 07:05:03;;;;;;;43.13;22.85;;;9.80;89.10;;;;;;5013234;28;20401;-73
2021/12/24 07:07:29;;;;;;;48.85;24.08;;;9.90;87.30;;;;;;5014676;28;20528;-73
2021/12/24 07:09:54;;;;;;;49.13;23.75;;;9.80;87.10;;;;;;5015456;28;20898;-72
2021/12/24 07:12:20;;;;;;;45.90;24.30;;;9.90;86.20;;;;;;5014294;28;20408;-72
2021/12/24 07:14:47;;;;;;;46.47;24.70;;;9.90;87.30;;;;;;5014534;28;20964;-73
2021/12/24 07:17:12;;;;;;;45.00;23.98;;;9.90;86.10;;;;;;5022827;28;20403;-74
2021/12/24 07:19:38;;;;;;;43.20;23.27;;;9.90;86.20;;;;;;5033643;28;20437;-73
2021/12/24 07:22:04;;;;;;;51.60;24.60;;;9.90;86.40;;;;;;5034044;28;20394;-72
2021/12/24 07:24:30;;;;;;;48.00;24.27;;;9.90;86.60;;;;;;5033838;28;20382;-73
2021/12/24 07:26:55;;;;;;;52.35;23.50;;;9.90;87.10;;;;;;5026498;28;20404;-74
2021/12/24 07:29:21;;;;;;;49.03;24.10;;;9.90;85.70;;;;;;5026742;28;20411;-73
2021/12/24 07:31:47;;;;;;;49.67;24.60;;;9.90;86.30;;;;;;5022880;28;20764;-74
2021/12/24 07:34:12;;;;;;;44.22;23.45;;;9.90;86.00;;;;;;5029526;28;20946;-71
2021/12/24 07:36:38;;;;;;;49.53;24.35;;;9.90;86.40;;;;;;5030012;28;20780;-73
2021/12/24 07:39:04;;;;;;;54.15;23.88;;;9.90;87.20;;;;;;5016584;28;20910;-72
2021/12/24 07:41:30;;;;;;;50.65;24.58;;;9.90;85.50;;;;;;5024797;28;20406;-72
2021/12/24 07:43:57;;;;;;;51.90;24.70;;;9.90;86.80;;;;;;5022208;28;20871;-74
2021/12/24 07:46:30;;;;;;;57.08;23.50;;;9.90;87.00;;;;;;5032220;28;20396;-75
2021/12/24 07:49:01;;;;;;;54.95;24.42;;;9.90;86.90;;;;;;5030945;28;20465;-73
2021/12/24 07:54:11;;;;;;;53.97;23.95;;;9.90;86.00;;;;;;5026229;28;20443;-73
2021/12/24 07:56:37;;;;;;;53.95;24.10;;;9.90;85.50;;;;;;5030057;28;20431;-73
2021/12/24 07:59:03;;;;;;;50.85;23.70;;;9.80;87.70;;;;;;5027051;28;20460;-74
2021/12/24 08:01:29;;;;;;;54.37;25.07;;;9.90;86.60;;;;;;5021514;28;20523;-73
2021/12/24 08:03:55;;;;;;;55.00;23.40;;;10.00;86.40;;;;;;5029355;28;20473;-74
2021/12/24 08:06:24;;;;;;;46.03;23.40;;;9.90;87.00;;;;;;5033475;28;20437;-73
2021/12/24 08:08:49;;;;;;;62.33;24.73;;;9.90;87.70;;;;;;5016132;28;20436;-74
2021/12/24 08:11:15;;;;;;;49.47;23.87;;;9.90;87.70;;;;;;5023782;28;20831;-74
2021/12/24 08:13:41;;;;;;;44.33;24.45;;;9.90;88.60;;;;;;5026450;28;20757;-73
2021/12/24 08:16:08;;;;;;;52.05;24.45;;;9.90;88.40;;;;;;5015245;28;20928;-75
2021/12/24 08:18:33;;;;;;;51.10;22.67;;;9.90;89.00;;;;;;5015639;28;20409;-74
2021/12/24 08:20:59;;;;;;;50.08;24.85;;;10.00;86.40;;;;;;5013582;28;20423;-74
2021/12/24 08:23:25;;;;;;;50.85;24.33;;;10.00;86.40;;;;;;5020725;28;20387;-75
2021/12/24 08:25:57;;;;;;;50.08;22.95;;;10.00;85.10;;;;;;5027104;28;20399;-73
2021/12/24 08:28:23;;;;;;;51.08;25.15;;;10.10;84.00;;;;;;5025285;28;20806;-73
2021/12/24 08:30:49;;;;;;;50.30;24.43;;;10.00;85.30;;;;;;5019388;28;20499;-78
2021/12/24 08:33:15;;;;;;;49.67;22.77;;;10.10;86.10;;;;;;5043017;28;20897;-74
2021/12/24 08:35:41;;;;;;;48.50;23.15;;;10.00;85.50;;;;;;5034336;28;20413;-76
2021/12/24 08:38:07;;;;;;;53.00;23.40;;;10.10;84.60;;;;;;5029752;28;20402;-77
2021/12/24 08:40:32;;;;;;;52.47;23.70;;;10.10;83.40;;;;;;5023679;28;20391;-75
2021/12/24 08:42:58;;;;;;;57.17;23.73;;;10.20;81.40;;;;;;5026135;28;20399;-75
2021/12/24 08:45:24;;;;;;;54.45;23.60;;;10.00;84.40;;;;;;5033095;28;20912;-75
2021/12/24 08:47:50;;;;;;;51.28;23.67;;;10.10;83.50;;;;;;5025571;28;20415;-77
2021/12/24 08:50:15;;;;;;;46.50;22.92;;;10.10;84.00;;;;;;5027574;28;20420;-75
2021/12/24 08:52:43;;;;;;;53.72;23.80;;;10.20;80.70;;;;;;5017779;28;20414;-73
2021/12/24 08:55:09;;;;;;;45.05;22.35;;;10.20;81.50;;;;;;5026441;28;20459;-73
2021/12/24 08:57:35;;;;;;;53.95;23.88;;;10.10;83.60;;;;;;5029293;28;20767;-73
2021/12/24 09:00:01;;;;;;;52.47;23.40;;;10.10;81.60;;;;;;5035463;28;20484;-73
2021/12/24 09:02:26;;;;;;;49.45;23.25;;;10.10;81.30;;;;;;5030255;28;20403;-74
2021/12/24 09:04:52;;;;;;;49.42;23.23;;;10.10;80.20;;;;;;5023606;28;20391;-74
2021/12/24 09:07:18;;;;;;;51.17;22.92;;;10.10;81.50;;;;;;5026482;28;20392;-76
2021/12/24 09:09:43;;;;;;;52.75;21.80;;;10.10;80.40;;;;;;5018347;28;20712;-75
2021/12/24 09:12:09;;;;;;;49.85;22.27;;;10.10;81.20;;;;;;5013727;28;20483;-74
2021/12/24 09:14:34;;;;;;;54.17;22.10;;;10.00;81.80;;;;;;5029537;28;20390;-73
2021/12/24 09:17:02;;;;;;;46.72;22.10;;;10.10;80.10;;;;;;5030712;28;20396;-74
2021/12/24 09:19:29;;;;;;;50.78;22.23;;;10.00;81.20;;;;;;5027740;28;20391;-73
2021/12/24 09:21:57;;;;;;;47.55;22.05;;;10.10;80.40;;;;;;5027727;28;20423;-73
2021/12/24 09:24:24;;;;;;;45.65;20.88;;;10.20;79.50;;;;;;5016276;28;20917;-74
2021/12/24 09:26:56;;;;;;;53.95;20.55;;;10.20;77.00;;;;;;5017985;28;20407;-73
2021/12/24 09:29:21;;;;;;;49.30;21.00;;;10.30;77.00;;;;;;5026654;28;20419;-76
2021/12/24 09:31:47;;;;;;;51.33;20.70;;;10.30;76.90;;;;;;5022095;28;20767;-76
2021/12/24 09:34:13;;;;;;;50.53;20.73;;;10.30;76.50;;;;;;5022017;28;20391;-74
2021/12/24 09:36:39;;;;;;;44.53;18.65;;;10.30;76.80;;;;;;5021886;28;20415;-75
2021/12/24 09:39:06;;;;;;;42.47;19.08;;;10.30;76.10;;;;;;5025959;28;20456;-75
2021/12/24 09:41:32;;;;;;;52.03;20.45;;;10.20;77.10;;;;;;5026203;28;20402;-73
2021/12/24 09:44:00;;;;;;;48.75;20.40;;;10.10;77.20;;;;;;5015401;28;20476;-74
2021/12/24 09:46:27;;;;;;;43.57;20.40;;;10.20;78.20;;;;;;5026483;28;20431;-73
2021/12/24 09:48:54;;;;;;;52.80;19.35;;;10.20;77.00;;;;;;5029064;28;20476;-74
2021/12/24 09:51:24;;;;;;;43.17;18.30;;;10.30;75.70;;;;;;5021821;28;20504;-74
2021/12/24 09:53:50;;;;;;;43.40;19.13;;;10.40;75.10;;;;;;5014493;28;20389;-72
2021/12/24 09:56:16;;;;;;;41.33;18.48;;;10.40;73.60;;;;;;5024857;28;20426;-73
2021/12/24 09:58:41;;;;;;;43.95;18.40;;;10.40;71.60;;;;;;5040096;28;20440;-73
2021/12/24 10:01:07;;;;;;;40.72;18.67;;;10.40;73.50;;;;;;5050689;28;20898;-73
2021/12/24 10:03:35;;;;;;;42.65;18.77;;;10.40;73.00;;;;;;5037703;28;20884;-74
2021/12/24 10:06:02;;;;;;;40.42;18.40;;;10.40;71.40;;;;;;5031379;28;20391;-74
2021/12/24 10:08:29;;;;;;;48.00;18.92;;;10.50;70.10;;;;;;5027106;28;20462;-73
2021/12/24 10:11:04;;;;;;;46.65;19.73;;;10.40;73.10;;;;;;5010941;28;20396;-73
2021/12/24 10:13:33;;;;;;;41.20;17.95;;;10.60;70.40;;;;;;5010617;28;20757;-73
2021/12/24 10:16:12;;;;;;;41.38;17.58;;;10.70;69.40;;;;;;5010544;28;20413;-73
2021/12/24 10:18:41;;;;;;;40.22;17.95;;;10.80;68.70;;;;;;5010781;28;20463;-73
2021/12/24 10:21:14;;;;;;;40.58;17.50;;;10.90;66.10;;;;;;5017447;28;20398;-72
2021/12/24 10:23:54;;;;;;;42.75;17.08;;;10.90;66.90;;;;;;5030614;28;20498;-73
2021/12/24 10:26:24;;;;;;;40.03;16.30;;;10.90;64.60;;;;;;5031518;28;20399;-74
2021/12/24 10:28:59;;;;;;;34.77;15.73;;;10.90;64.70;;;;;;5034600;28;20509;-74
2021/12/24 10:31:31;;;;;;;35.58;16.40;;;10.90;64.80;;;;;;5031371;28;20767;-74
2021/12/24 10:34:12;;;;;;;36.80;14.97;;;10.80;66.00;;;;;;5024304;28;20443;-75
2021/12/24 10:36:52;;;;;;;34.70;15.68;;;10.80;63.80;;;;;;5014543;28;20480;-73
2021/12/24 10:39:19;;;;;;;41.78;15.40;;;10.80;64.10;;;;;;5015011;28;20381;-73
2021/12/24 10:41:47;;;;;;;40.17;15.15;;;10.80;63.70;;;;;;5014432;28;20423;-73
2021/12/24 10:44:18;;;;;;;37.15;14.85;;;10.70;63.50;;;;;;5020126;28;20401;-73
2021/12/24 10:47:15;;;;;;;42.93;16.10;;;10.70;63.40;;;;;;5033424;28;20473;-74
2021/12/24 10:50:03;;;;;;;36.28;15.68;;;10.60;65.00;;;;;;5033320;28;20482;-74
2021/12/24 10:55:11;;;;;;;34.20;14.77;;;10.60;66.50;;;;;;5033436;28;20437;-73
2021/12/24 10:57:42;;;;;;;36.72;14.88;;;10.60;67.20;;;;;;5033219;28;20616;-73
2021/12/24 11:00:25;;;;;;;32.70;15.00;;;10.50;66.50;;;;;;5051472;28;20404;-73
2021/12/24 11:02:57;;;;;;;34.90;16.45;;;10.50;67.60;;;;;;5036538;28;20386;-73
2021/12/24 11:05:35;;;;;;;36.47;15.98;;;10.40;68.30;;;;;;5037784;28;20390;-73
2021/12/24 11:08:04;;;;;;;34.25;16.90;;;10.40;68.60;;;;;;5022572;28;20744;-73
2021/12/24 11:10:37;;;;;;;33.90;16.10;;;10.40;69.10;;;;;;5037896;28;20395;-74
2021/12/24 11:13:09;;;;;;;34.35;16.10;;;10.40;68.80;;;;;;5034499;28;20391;-74
2021/12/24 11:15:39;;;;;;;35.47;16.60;;;10.40;68.50;;;;;;5033272;28;20406;-73
2021/12/24 11:18:13;;;;;;;31.20;15.60;;;10.40;68.70;;;;;;5033654;28;20467;-73
2021/12/24 11:20:39;;;;;;;37.40;15.90;;;10.40;68.00;;;;;;5034355;28;20394;-74
2021/12/24 11:23:07;;;;;;;37.08;16.20;;;10.40;69.60;;;;;;5033455;28;20864;-73
2021/12/24 11:25:37;;;;;;;39.92;18.02;;;10.30;72.00;;;;;;5033643;28;20666;-75
2021/12/24 11:28:04;;;;;;;37.22;17.83;;;10.30;73.80;;;;;;5033623;28;20666;-73
2021/12/24 11:30:31;;;;;;;45.42;19.23;;;10.30;75.20;;;;;;5021681;28;20566;-73
2021/12/24 11:32:57;;;;;;;37.17;17.52;;;10.20;77.50;;;;;;5033658;28;20402;-73
2021/12/24 11:35:24;;;;;;;37.83;16.45;;;10.30;74.00;;;;;;5034690;28;20422;-73
2021/12/24 11:37:51;;;;;;;37.05;16.90;;;10.40;73.50;;;;;;5036155;28;20401;-73
2021/12/24 11:40:18;;;;;;;41.15;16.75;;;10.40;71.70;;;;;;5032073;28;20426;-72
2021/12/24 11:42:50;;;;;;;31.80;15.80;;;10.50;70.90;;;;;;5017927;28;20511;-73
2021/12/24 11:45:16;;;;;;;33.67;15.98;;;10.50;70.00;;;;;;5033463;28;20410;-74
2021/12/24 11:47:42;;;;;;;32.05;15.05;;;10.60;67.50;;;;;;5033650;28;20387;-73
2021/12/24 11:50:08;;;;;;;36.25;15.98;;;10.60;66.80;;;;;;5033484;28;20418;-73
2021/12/24 11:52:35;;;;;;;37.42;16.20;;;10.60;67.30;;;;;;5032435;28;20485;-73
2021/12/24 11:55:01;;;;;;;35.20;15.52;;;10.60;66.20;;;;;;5033190;28;20410;-73
2021/12/24 11:57:26;;;;;;;32.67;15.40;;;10.60;66.20;;;;;;5033418;28;20379;-73
2021/12/24 11:59:52;;;;;;;36.40;15.63;;;10.60;66.20;;;;;;5052639;28;20504;-73
2021/12/24 12:02:36;;;;;;;34.43;15.17;;;10.70;65.00;;;;;;5044713;28;20517;-73
2021/12/24 12:05:32;;;;;;;37.10;16.25;;;10.60;64.30;;;;;;5013876;28;20762;-73
2021/12/24 12:08:26;;;;;;;36.15;15.20;;;10.60;65.30;;;;;;5011932;28;20412;-72
2021/12/24 12:10:56;;;;;;;36.65;16.40;;;10.60;65.90;;;;;;5011996;28;20388;-73
2021/12/24 12:13:45;;;;;;;31.90;16.17;;;10.60;67.20;;;;;;5014740;28;20438;-73
2021/12/24 12:16:18;;;;;;;43.95;16.08;;;10.60;65.90;;;;;;5013299;28;20436;-73
2021/12/24 12:18:48;;;;;;;36.47;16.27;;;10.60;65.00;;;;;;5013575;28;20889;-73
2021/12/24 12:21:23;;;;;;;33.63;16.00;;;10.60;65.10;;;;;;5013931;28;20849;-73
2021/12/24 12:26:44;;;;;;;38.35;17.10;;;10.50;66.60;;;;;;5040863;28;20938;-74
2021/12/24 12:29:32;;;;;;;47.67;17.25;;;10.50;66.30;;;;;;5031813;28;20821;-74
2021/12/24 12:32:27;;;;;;;43.63;17.73;;;10.40;67.50;;;;;;5021000;28;20396;-73
2021/12/24 12:34:58;;;;;;;43.47;16.77;;;10.60;66.50;;;;;;5020417;28;20527;-73
2021/12/24 12:37:42;;;;;;;41.55;17.30;;;10.70;65.60;;;;;;5032258;28;20409;-74
2021/12/24 12:40:16;;;;;;;46.25;16.50;;;10.70;63.20;;;;;;5032976;28;20453;-73
2021/12/24 12:42:48;;;;;;;34.80;16.60;;;10.70;63.50;;;;;;5025749;28;20762;-73
2021/12/24 12:45:15;;;;;;;39.55;15.45;;;10.70;64.20;;;;;;5011123;28;20397;-73
2021/12/24 12:47:58;;;;;;;40.00;17.13;;;10.60;62.70;;;;;;5015223;28;20443;-73
2021/12/24 12:50:26;;;;;;;32.97;16.63;;;10.70;63.60;;;;;;5010735;28;20484;-73
2021/12/24 12:53:26;;;;;;;38.38;15.75;;;10.70;63.70;;;;;;5028156;28;20806;-73
2021/12/24 12:56:21;;;;;;;38.17;15.32;;;10.70;63.00;;;;;;5032588;28;20411;-73
2021/12/24 12:58:58;;;;;;;30.38;15.00;;;10.80;61.60;;;;;;5033233;28;20805;-72
2021/12/24 13:01:23;;;;;;;30.90;15.63;;;10.80;63.50;;;;;;5048211;28;20387;-74
2021/12/24 13:03:55;;;;;;;27.97;14.77;;;10.80;62.90;;;;;;5030715;28;20402;-74
2021/12/24 13:06:36;;;;;;;38.90;14.67;;;10.80;62.10;;;;;;5031621;28;20395;-73
2021/12/24 13:09:07;;;;;;;30.10;14.23;;;10.90;61.20;;;;;;5031930;28;20395;-72
2021/12/24 13:11:41;;;;;;;29.70;13.80;;;10.90;60.10;;;;;;5030959;28;20391;-72
2021/12/24 13:14:09;;;;;;;33.47;15.55;;;11.00;59.10;;;;;;5023495;28;20435;-73
2021/12/24 13:16:43;;;;;;;35.30;15.07;;;11.00;60.00;;;;;;5022189;28;20498;-73
2021/12/24 13:24:50;;;;;;;30.65;13.70;;;11.10;58.60;;;;;;5031689;28;20410;-74
2021/12/24 13:27:17;;;;;;;35.17;14.07;;;11.20;57.20;;;;;;5016578;28;20480;-72
2021/12/24 13:29:44;;;;;;;31.88;13.00;;;11.20;54.60;;;;;;5012434;28;20817;-72
2021/12/24 13:32:09;;;;;;;28.52;13.32;;;11.20;55.70;;;;;;5011959;28;20408;-74
2021/12/24 13:34:36;;;;;;;30.98;12.63;;;11.20;56.90;;;;;;5011723;28;20399;-72
2021/12/24 13:37:12;;;;;;;24.53;12.33;;;11.10;57.10;;;;;;5026666;28;20863;-73
2021/12/24 13:39:46;;;;;;;33.53;12.68;;;11.00;57.20;;;;;;5030497;28;20399;-73
2021/12/24 13:42:12;;;;;;;33.45;13.30;;;10.90;58.70;;;;;;5011720;28;20424;-74
2021/12/24 13:44:40;;;;;;;29.63;13.18;;;10.90;60.10;;;;;;5013509;28;20401;-74
2021/12/24 13:47:22;;;;;;;35.53;13.55;;;10.90;59.50;;;;;;5013595;28;20389;-72
2021/12/24 13:55:26;;;;;;;34.17;13.40;;;10.90;60.00;;;;;;5019408;28;20979;-72
2021/12/24 13:58:07;;;;;;;31.42;13.95;;;10.90;59.40;;;;;;5017066;28;20405;-72
2021/12/24 14:00:35;;;;;;;33.03;13.60;;;10.90;58.80;;;;;;5039964;28;20936;-72
2021/12/24 14:03:05;;;;;;;31.88;15.05;;;10.90;59.10;;;;;;5031089;28;20714;-73
2021/12/24 14:05:31;;;;;;;32.10;13.60;;;10.80;60.60;;;;;;5031268;28;20757;-72
2021/12/24 14:08:06;;;;;;;27.50;13.93;;;10.70;61.30;;;;;;5032203;28;20414;-74
2021/12/24 14:10:32;;;;;;;29.25;14.65;;;10.70;61.20;;;;;;5012522;28;20459;-74
2021/12/24 14:13:05;;;;;;;27.27;13.67;;;10.70;62.50;;;;;;5017059;28;20463;-73
2021/12/24 14:15:32;;;;;;;30.67;13.90;;;10.60;63.30;;;;;;5012391;28;20420;-73
2021/12/24 14:18:21;;;;;;;37.90;14.70;;;10.60;61.20;;;;;;5028053;28;20391;-72
2021/12/24 14:23:25;;;;;;;29.38;14.55;;;10.30;64.30;;;;;;5024805;28;20396;-72
2021/12/24 14:26:08;;;;;;;32.13;15.67;;;10.20;64.90;;;;;;5011632;28;20743;-72
2021/12/24 14:28:34;;;;;;;35.33;16.55;;;10.10;66.40;;;;;;5011472;28;20813;-73
2021/12/24 14:31:05;;;;;;;33.50;15.50;;;9.90;69.80;;;;;;5011280;28;20501;-72
2021/12/24 14:33:38;;;;;;;40.17;16.20;;;9.80;71.70;;;;;;5011100;28;20388;-73
2021/12/24 14:36:05;;;;;;;36.60;15.70;;;9.80;72.00;;;;;;5026447;28;20406;-73
2021/12/24 14:38:30;;;;;;;33.45;15.25;;;9.80;71.50;;;;;;5029660;28;20424;-73
2021/12/24 14:40:58;;;;;;;33.33;16.57;;;9.70;71.80;;;;;;5031202;28;20957;-73
2021/12/24 14:43:25;;;;;;;33.83;16.05;;;9.70;71.40;;;;;;5030509;28;20403;-72
2021/12/24 14:45:52;;;;;;;40.28;16.33;;;9.60;71.80;;;;;;5030610;28;20390;-73
2021/12/24 14:48:26;;;;;;;35.70;16.42;;;9.60;73.10;;;;;;5015452;28;20444;-73